createdAt,value
2018-11-03T00:00:07.550Z,65.93
2018-11-03T00:02:37.935Z,66.10
2018-11-03T00:05:19.863Z,66.05
2018-11-03T00:07:50.709Z,66.26
2018-11-03T00:10:20.683Z,66.59
2018-11-03T00:13:02.522Z,66.32
2018-11-03T00:15:32.616Z,66.86
2018-11-03T00:18:03.069Z,66.77
2018-11-03T00:20:33.081Z,66.60
2018-11-03T00:23:03.157Z,66.79
2018-11-03T00:25:33.176Z,67.02
2018-11-03T00:28:03.184Z,67.31
2018-11-03T00:30:33.192Z,67.03
2018-11-03T00:33:03.184Z,67.20
2018-11-03T00:35:33.172Z,66.66
2018-11-03T00:38:03.125Z,66.59
2018-11-03T00:40:33.239Z,66.88
2018-11-03T00:43:03.203Z,66.59
2018-11-03T00:45:45.239Z,66.73
2018-11-03T00:48:15.302Z,66.49
2018-11-03T00:50:45.338Z,66.78
2018-11-03T00:53:33.628Z,66.68
2018-11-03T00:56:03.951Z,66.91
2018-11-03T00:58:35.393Z,66.74
2018-11-03T01:01:05.496Z,66.54
2018-11-03T01:03:35.479Z,66.20
2018-11-03T01:06:18.280Z,66.42
2018-11-03T01:08:48.261Z,66.23
2018-11-03T01:11:18.288Z,66.11
2018-11-03T01:13:48.288Z,66.61
2018-11-03T01:16:18.344Z,66.46
2018-11-03T01:18:48.363Z,66.63
2018-11-03T01:21:18.365Z,66.84
2018-11-03T01:23:48.444Z,66.49
2018-11-03T01:26:18.374Z,66.46
2018-11-03T01:28:48.432Z,66.79
2018-11-03T01:31:30.801Z,66.99
2018-11-03T01:34:00.787Z,66.51
2018-11-03T01:36:30.796Z,66.77
2018-11-03T01:39:00.714Z,66.88
2018-11-03T01:41:30.715Z,66.54
2018-11-03T01:44:00.724Z,66.86
2018-11-03T01:46:30.754Z,66.81
2018-11-03T01:49:00.743Z,67.04
2018-11-03T01:51:30.734Z,67.08
2018-11-03T01:54:12.866Z,67.28
2018-11-03T01:56:54.718Z,66.77
2018-11-03T01:59:36.407Z,67.10
2018-11-03T02:02:07.097Z,66.83
2018-11-03T02:04:37.080Z,67.13
2018-11-03T02:07:19.825Z,66.85
2018-11-03T02:09:50.127Z,67.00
2018-11-03T02:12:32.314Z,67.05
2018-11-03T02:15:02.253Z,67.15
2018-11-03T02:17:32.452Z,67.06
2018-11-03T02:20:02.460Z,66.83
2018-11-03T02:22:32.464Z,66.95
2018-11-03T02:25:02.473Z,67.34
2018-11-03T02:27:32.417Z,67.50
2018-11-03T02:30:03.049Z,66.96
2018-11-03T02:32:44.871Z,67.22
2018-11-03T02:35:14.855Z,66.80
2018-11-03T02:37:57.000Z,66.95
2018-11-03T02:40:27.110Z,67.13
2018-11-03T02:42:57.211Z,67.01
2018-11-03T02:45:45.836Z,67.00
2018-11-03T02:48:15.845Z,66.92
2018-11-03T02:50:45.770Z,66.90
2018-11-03T02:53:15.714Z,67.03
2018-11-03T02:55:57.469Z,67.09
2018-11-03T02:58:39.638Z,66.91
2018-11-03T03:01:22.251Z,67.04
2018-11-03T03:04:10.547Z,67.00
2018-11-03T03:06:52.963Z,66.94
2018-11-03T03:09:23.331Z,66.75
2018-11-03T03:11:53.303Z,66.85
2018-11-03T03:14:35.935Z,66.99
2018-11-03T03:17:06.129Z,66.61
2018-11-03T03:19:36.096Z,66.67
2018-11-03T03:22:18.459Z,66.52
2018-11-03T03:24:48.499Z,66.51
2018-11-03T03:27:18.862Z,66.89
2018-11-03T03:30:01.113Z,66.43
2018-11-03T03:32:50.572Z,66.83
2018-11-03T03:35:21.046Z,66.22
2018-11-03T03:37:51.443Z,66.25
2018-11-03T03:40:21.439Z,66.09
2018-11-03T03:43:02.846Z,65.90
2018-11-03T03:45:33.309Z,66.38
2018-11-03T03:48:15.623Z,66.24
2018-11-03T03:50:45.278Z,66.25
2018-11-03T03:53:15.781Z,66.02
2018-11-03T03:55:45.813Z,65.93
2018-11-03T03:58:15.810Z,66.14
2018-11-03T04:00:45.836Z,65.89
2018-11-03T04:03:15.848Z,66.01
2018-11-03T04:05:45.961Z,66.12
2018-11-03T04:08:15.908Z,66.13
2018-11-03T04:10:45.907Z,66.61
2018-11-03T04:13:15.923Z,66.46
2018-11-03T04:15:45.931Z,65.99
2018-11-03T04:18:15.912Z,66.50
2018-11-03T04:20:45.927Z,65.78
2018-11-03T04:23:15.938Z,65.94
2018-11-03T04:25:45.906Z,65.62
2018-11-03T04:28:15.885Z,65.73
2018-11-03T04:30:45.848Z,66.03
2018-11-03T04:33:15.834Z,66.02
2018-11-03T04:35:45.851Z,66.14
2018-11-03T04:38:15.820Z,66.20
2018-11-03T04:40:45.812Z,66.42
2018-11-03T04:43:15.794Z,66.12
2018-11-03T04:45:45.742Z,66.34
2018-11-03T04:48:15.790Z,65.88
2018-11-03T04:50:45.737Z,65.84
2018-11-03T04:53:15.760Z,65.93
2018-11-03T04:55:45.767Z,66.13
2018-11-03T04:58:15.759Z,65.67
2018-11-03T05:00:45.768Z,65.77
2018-11-03T05:03:15.763Z,65.44
2018-11-03T05:05:45.699Z,66.13
2018-11-03T05:08:15.682Z,66.41
2018-11-03T05:10:45.700Z,65.94
2018-11-03T05:13:16.247Z,65.70
2018-11-03T05:15:46.189Z,66.20
2018-11-03T05:18:16.182Z,66.25
2018-11-03T05:20:46.186Z,66.27
2018-11-03T05:23:16.187Z,66.06
2018-11-03T05:25:46.106Z,66.47
2018-11-03T05:28:16.091Z,66.50
2018-11-03T05:30:46.128Z,66.42
2018-11-03T05:33:16.053Z,66.36
2018-11-03T05:35:47.071Z,66.64
2018-11-03T05:38:17.050Z,66.19
2018-11-03T05:40:47.024Z,66.39
2018-11-03T05:43:17.016Z,66.19
2018-11-03T05:45:47.023Z,66.29
2018-11-03T05:48:16.990Z,66.38
2018-11-03T05:50:47.336Z,66.86
2018-11-03T05:53:17.408Z,66.22
2018-11-03T05:55:47.436Z,66.22
2018-11-03T05:58:17.402Z,66.54
2018-11-03T06:00:47.443Z,66.78
2018-11-03T06:03:17.518Z,66.20
2018-11-03T06:05:47.492Z,66.76
2018-11-03T06:08:17.482Z,66.84
2018-11-03T06:10:47.528Z,66.77
2018-11-03T06:13:17.487Z,67.21
2018-11-03T06:15:47.466Z,67.23
2018-11-03T06:18:17.514Z,66.94
2018-11-03T06:20:47.617Z,67.35
2018-11-03T06:23:17.850Z,67.43
2018-11-03T06:25:47.832Z,67.03
2018-11-03T06:28:17.996Z,67.28
2018-11-03T06:30:48.125Z,67.53
2018-11-03T06:33:18.479Z,67.48
2018-11-03T06:35:48.616Z,67.53
2018-11-03T06:38:18.754Z,67.33
2018-11-03T06:40:48.824Z,67.55
2018-11-03T06:43:18.873Z,67.24
2018-11-03T06:45:48.850Z,67.55
2018-11-03T06:48:18.860Z,67.38
2018-11-03T06:50:48.829Z,67.66
2018-11-03T06:53:18.842Z,67.36
2018-11-03T06:55:48.842Z,67.49
2018-11-03T06:58:19.956Z,67.28
2018-11-03T07:00:49.975Z,67.33
2018-11-03T07:03:20.047Z,67.15
2018-11-03T07:05:50.072Z,67.76
2018-11-03T07:08:20.168Z,67.67
2018-11-03T07:10:50.210Z,67.76
2018-11-03T07:13:20.353Z,68.12
2018-11-03T07:15:50.295Z,68.29
2018-11-03T07:18:20.470Z,69.06
2018-11-03T07:20:50.520Z,68.64
2018-11-03T07:23:20.633Z,68.62
2018-11-03T07:25:50.645Z,68.35
2018-11-03T07:28:20.806Z,68.13
2018-11-03T07:30:50.858Z,68.65
2018-11-03T07:33:20.887Z,68.44
2018-11-03T07:35:50.936Z,68.54
2018-11-03T07:38:32.727Z,68.54
2018-11-03T07:41:03.848Z,68.33
2018-11-03T07:43:33.724Z,69.13
2018-11-03T07:46:03.751Z,68.64
2018-11-03T07:48:33.985Z,68.79
2018-11-03T07:51:15.522Z,68.71
2018-11-03T07:53:57.703Z,68.60
2018-11-03T07:56:43.275Z,69.33
2018-11-03T07:59:24.830Z,68.88
2018-11-03T08:02:06.791Z,69.56
2018-11-03T08:04:48.422Z,69.17
2018-11-03T08:07:18.414Z,69.65
2018-11-03T08:10:00.831Z,69.12
2018-11-03T08:12:42.357Z,68.98
2018-11-03T08:15:24.485Z,68.89
2018-11-03T08:18:06.139Z,68.87
2018-11-03T08:20:47.560Z,68.65
2018-11-03T08:23:29.398Z,68.38
2018-11-03T08:26:10.990Z,68.60
2018-11-03T08:29:01.486Z,68.75
2018-11-03T08:31:43.625Z,68.60
2018-11-03T08:34:13.635Z,68.06
2018-11-03T08:36:55.356Z,67.92
2018-11-03T08:39:37.588Z,67.71
2018-11-03T08:42:19.007Z,67.58
2018-11-03T08:45:01.060Z,67.61
2018-11-03T08:47:43.634Z,67.58
2018-11-03T08:50:27.620Z,67.28
2018-11-03T08:52:57.638Z,67.67
2018-11-03T08:55:39.994Z,67.51
2018-11-03T08:58:22.144Z,67.30
2018-11-03T09:01:03.781Z,67.19
2018-11-03T09:03:46.263Z,66.87
2018-11-03T09:06:16.324Z,67.19
2018-11-03T09:08:58.021Z,66.62
2018-11-03T09:11:39.817Z,66.40
2018-11-03T09:14:22.177Z,65.63
2018-11-03T09:17:04.002Z,66.48
2018-11-03T09:19:33.983Z,66.14
2018-11-03T09:22:03.988Z,65.27
2018-11-03T09:24:46.789Z,65.39
2018-11-03T09:27:29.923Z,64.69
2018-11-03T09:30:14.201Z,64.55
2018-11-03T09:32:56.545Z,64.68
2018-11-03T09:35:26.628Z,64.57
2018-11-03T09:38:09.086Z,64.60
2018-11-03T09:40:51.655Z,64.26
2018-11-03T09:43:34.485Z,64.83
2018-11-03T09:46:17.446Z,63.77
2018-11-03T09:48:59.146Z,63.11
2018-11-03T09:51:41.608Z,63.03
2018-11-03T09:54:11.631Z,62.56
2018-11-03T09:56:41.664Z,63.09
2018-11-03T09:59:31.123Z,62.57
2018-11-03T10:02:14.528Z,62.56
2018-11-03T10:07:57.394Z,62.88
2018-11-03T10:10:39.150Z,63.51
2018-11-03T10:13:20.845Z,62.71
2018-11-03T11:20:59.047Z,57.43
2018-11-03T11:23:31.188Z,56.46
2018-11-03T11:26:01.244Z,56.31
2018-11-03T11:28:31.333Z,56.53
2018-11-03T11:31:01.370Z,55.80
2018-11-03T11:33:31.405Z,56.96
2018-11-03T11:36:01.418Z,55.91
2018-11-03T11:38:31.494Z,55.67
2018-11-03T11:41:01.452Z,55.93
2018-11-03T11:43:31.503Z,55.70
2018-11-03T11:46:01.463Z,55.51
2018-11-03T11:48:31.563Z,55.06
2018-11-03T11:51:01.607Z,54.77
2018-11-03T11:53:31.682Z,53.76
2018-11-03T11:56:01.772Z,53.75
2018-11-03T11:58:31.810Z,52.29
2018-11-03T12:01:01.869Z,52.93
2018-11-03T12:03:31.899Z,52.40
2018-11-03T12:06:01.993Z,52.26
2018-11-03T12:08:32.083Z,51.60
2018-11-03T12:11:02.139Z,49.31
2018-11-03T12:13:32.146Z,50.26
2018-11-03T12:16:02.256Z,47.79
2018-11-03T12:18:32.238Z,48.75
2018-11-03T12:21:02.301Z,47.89
2018-11-03T12:23:32.307Z,46.81
2018-11-03T12:26:02.344Z,47.21
2018-11-03T12:28:32.389Z,46.65
2018-11-03T12:31:02.453Z,46.76
2018-11-03T12:33:32.552Z,48.22
2018-11-03T12:36:02.607Z,47.13
2018-11-03T12:38:32.592Z,46.48
2018-11-03T12:41:02.622Z,46.77
2018-11-03T12:43:32.622Z,46.93
2018-11-03T12:46:02.727Z,47.16
2018-11-03T12:48:32.720Z,45.44
2018-11-03T12:51:02.728Z,45.58
2018-11-03T12:53:32.791Z,45.42
2018-11-03T12:56:02.755Z,44.24
2018-11-03T12:58:32.720Z,44.53
2018-11-03T13:01:02.729Z,45.37
2018-11-03T13:03:32.756Z,44.49
2018-11-03T13:06:02.726Z,45.26
2018-11-03T13:08:32.753Z,45.07
2018-11-03T13:11:02.739Z,44.77
2018-11-03T13:13:32.743Z,46.80
2018-11-03T13:16:02.698Z,48.15
2018-11-03T13:18:32.675Z,44.46
2018-11-03T13:21:02.691Z,45.37
2018-11-03T13:23:32.729Z,44.87
2018-11-03T13:26:02.817Z,44.22
2018-11-03T13:28:32.829Z,44.19
2018-11-03T13:31:02.813Z,44.24
2018-11-03T13:33:32.825Z,43.61
2018-11-03T13:36:02.867Z,44.97
2018-11-03T13:38:32.877Z,44.01
2018-11-03T13:41:02.955Z,44.00
2018-11-03T13:43:32.934Z,46.05
2018-11-03T13:46:02.944Z,45.07
2018-11-03T13:48:32.940Z,43.72
2018-11-03T13:51:02.948Z,44.00
2018-11-03T13:53:32.911Z,42.94
2018-11-03T13:56:02.983Z,45.06
2018-11-03T13:58:32.978Z,45.64
2018-11-03T14:01:03.757Z,44.65
2018-11-03T14:03:33.740Z,43.52
2018-11-03T14:06:03.743Z,44.10
2018-11-03T14:08:33.794Z,42.77
2018-11-03T14:11:03.883Z,43.94
2018-11-03T14:13:33.847Z,43.37
2018-11-03T14:16:03.947Z,43.68
2018-11-03T14:18:33.947Z,44.49
2018-11-03T14:21:03.970Z,44.85
2018-11-03T14:23:33.968Z,44.57
2018-11-03T14:26:03.997Z,43.67
2018-11-03T14:28:34.033Z,45.86
2018-11-03T14:31:04.115Z,46.08
2018-11-03T14:33:34.119Z,46.05
2018-11-03T14:36:04.164Z,47.29
2018-11-03T14:38:34.133Z,46.47
2018-11-03T14:41:04.188Z,46.25
2018-11-03T14:43:34.228Z,45.76
2018-11-03T14:46:04.312Z,46.19
2018-11-03T14:48:34.374Z,45.74
2018-11-03T14:51:04.443Z,47.12
2018-11-03T14:53:34.452Z,45.95
2018-11-03T14:56:04.543Z,45.50
2018-11-03T14:58:34.567Z,44.67
2018-11-03T15:01:04.714Z,47.25
2018-11-03T15:03:34.803Z,47.95
2018-11-03T15:06:04.864Z,47.38
2018-11-03T15:08:34.944Z,48.50
2018-11-03T15:11:04.939Z,48.61
2018-11-03T15:13:34.994Z,49.06
2018-11-03T15:16:05.029Z,49.37
2018-11-03T15:18:35.081Z,49.45
2018-11-03T15:21:05.154Z,50.02
2018-11-03T15:23:35.621Z,49.10
2018-11-03T15:26:05.641Z,49.61
2018-11-03T15:28:35.591Z,49.07
2018-11-03T15:31:05.871Z,49.32
2018-11-03T15:33:35.904Z,49.54
2018-11-03T15:36:06.051Z,50.15
2018-11-03T15:56:34.435Z,51.56
2018-11-03T16:11:29.172Z,53.43
2018-11-03T16:14:10.999Z,53.74
2018-11-03T16:16:53.682Z,54.22
2018-11-03T16:19:44.153Z,54.68
2018-11-03T16:22:14.157Z,55.13
2018-11-03T16:24:56.289Z,55.62
2018-11-03T16:27:26.315Z,55.66
2018-11-03T16:29:56.288Z,56.22
2018-11-03T16:32:38.646Z,56.02
2018-11-03T16:35:08.477Z,56.05
2018-11-03T16:37:50.839Z,56.50
2018-11-03T16:40:33.195Z,56.48
2018-11-03T16:43:03.183Z,57.00
2018-11-03T16:45:44.998Z,57.25
2018-11-03T16:48:26.823Z,57.60
2018-11-03T16:51:08.629Z,57.64
2018-11-03T16:53:51.174Z,57.65
2018-11-03T16:56:39.877Z,57.90
2018-11-03T16:59:22.307Z,58.28
2018-11-03T17:02:11.282Z,58.42
2018-11-03T17:04:53.765Z,58.74
2018-11-03T17:10:27.404Z,59.14
2018-11-03T17:12:57.400Z,59.34
2018-11-03T17:15:41.689Z,59.54
2018-11-03T17:18:23.561Z,59.55
2018-11-03T17:21:17.554Z,59.85
2018-11-03T17:23:59.865Z,59.85
2018-11-03T17:26:29.965Z,59.99
2018-11-03T17:29:11.879Z,59.87
2018-11-03T17:31:42.993Z,60.59
2018-11-03T17:34:13.037Z,60.17
2018-11-03T17:36:44.521Z,60.73
2018-11-03T17:39:16.201Z,60.69
2018-11-03T17:41:47.206Z,60.67
2018-11-03T17:44:17.294Z,60.70
2018-11-03T17:47:09.996Z,60.88
2018-11-03T17:49:46.255Z,61.14
2018-11-03T17:55:16.703Z,61.30
2018-11-03T17:57:47.054Z,61.25
2018-11-03T18:00:17.659Z,61.28
2018-11-03T18:02:47.744Z,61.34
2018-11-03T18:05:17.704Z,60.95
2018-11-03T18:07:47.811Z,61.40
2018-11-03T18:10:17.849Z,61.56
2018-11-03T18:12:47.842Z,61.54
2018-11-03T18:15:17.935Z,62.67
2018-11-03T18:17:47.965Z,62.07
2018-11-03T18:20:17.923Z,62.60
2018-11-03T18:22:47.980Z,62.61
2018-11-03T18:25:17.969Z,62.64
2018-11-03T18:27:48.019Z,62.78
2018-11-03T18:30:18.076Z,62.98
2018-11-03T18:32:48.294Z,62.40
2018-11-03T18:35:18.296Z,62.64
2018-11-03T18:37:48.383Z,62.57
2018-11-03T18:40:18.373Z,62.69
2018-11-03T18:42:48.357Z,62.99
2018-11-03T18:45:18.447Z,62.52
2018-11-03T18:47:48.591Z,63.16
2018-11-03T18:50:18.980Z,62.76
2018-11-03T18:52:49.152Z,63.15
2018-11-03T18:55:19.207Z,63.17
2018-11-03T18:57:49.295Z,63.51
2018-11-03T19:00:19.264Z,63.79
2018-11-03T19:02:49.288Z,64.00
2018-11-03T19:05:19.280Z,64.11
2018-11-03T19:07:49.949Z,63.88
2018-11-03T19:10:19.998Z,63.91
2018-11-03T19:12:50.025Z,64.24
2018-11-03T19:15:19.988Z,64.33
2018-11-03T19:17:50.064Z,64.60
2018-11-03T19:20:20.415Z,64.47
2018-11-03T19:22:50.444Z,64.39
2018-11-03T19:25:20.450Z,64.37
2018-11-03T19:27:50.494Z,64.53
2018-11-03T19:30:20.642Z,64.66
2018-11-03T19:32:50.623Z,64.57
2018-11-03T19:35:20.652Z,64.70
2018-11-03T19:37:50.729Z,64.68
2018-11-03T19:40:20.818Z,64.95
2018-11-03T19:42:50.900Z,65.11
2018-11-03T19:45:20.978Z,64.91
2018-11-03T19:47:50.941Z,65.02
2018-11-03T19:50:20.947Z,64.92
2018-11-03T19:52:50.922Z,64.89
2018-11-03T19:55:20.927Z,64.65
2018-11-03T19:57:51.016Z,65.09
2018-11-03T20:00:21.048Z,64.67
2018-11-03T20:02:51.109Z,64.86
2018-11-03T20:05:21.066Z,64.68
2018-11-03T20:07:51.135Z,64.83
2018-11-03T20:10:21.206Z,64.68
2018-11-03T20:12:51.214Z,64.26
2018-11-03T20:15:21.188Z,64.71
2018-11-03T20:17:51.210Z,64.64
2018-11-03T20:20:21.157Z,64.67
2018-11-03T20:22:51.254Z,64.73
2018-11-03T20:25:21.279Z,64.69
2018-11-03T20:27:51.304Z,64.54
2018-11-03T20:30:21.359Z,64.67
2018-11-03T20:32:51.329Z,64.90
2018-11-03T20:35:21.419Z,64.72
2018-11-03T20:37:51.388Z,64.45
2018-11-03T20:40:21.414Z,64.52
2018-11-03T20:42:51.440Z,64.86
2018-11-03T20:45:21.478Z,65.23
2018-11-03T20:47:51.540Z,65.29
2018-11-03T20:50:21.636Z,65.14
2018-11-03T20:52:51.724Z,65.44
2018-11-03T20:55:21.818Z,65.29
2018-11-03T20:57:51.827Z,65.68
2018-11-03T21:00:21.867Z,65.91
2018-11-03T21:02:52.291Z,66.20
2018-11-03T21:05:22.280Z,65.68
2018-11-03T21:07:52.393Z,66.59
2018-11-03T21:10:22.370Z,66.38
2018-11-03T21:12:52.425Z,66.55
2018-11-03T21:15:23.089Z,66.91
2018-11-03T21:17:53.147Z,66.93
2018-11-03T21:20:23.183Z,66.51
2018-11-03T21:22:53.822Z,66.62
2018-11-03T21:25:23.753Z,66.48
2018-11-03T21:27:53.757Z,66.80
2018-11-03T21:30:23.752Z,66.15
2018-11-03T21:32:53.980Z,66.02
2018-11-03T21:35:23.850Z,65.96
2018-11-03T21:37:53.820Z,66.26
2018-11-03T21:40:24.173Z,65.75
2018-11-03T21:42:54.092Z,65.85
2018-11-03T21:45:24.131Z,65.82
2018-11-03T21:47:54.101Z,65.19
2018-11-03T21:50:24.115Z,65.83
2018-11-03T21:52:54.130Z,65.19
2018-11-03T21:55:24.267Z,65.26
2018-11-03T21:57:54.356Z,65.59
2018-11-03T22:00:24.386Z,65.41
2018-11-03T22:02:54.430Z,65.30
2018-11-03T22:05:24.900Z,65.32
2018-11-03T22:07:54.927Z,65.46
2018-11-03T22:10:24.929Z,65.54
2018-11-03T22:12:54.966Z,65.80
2018-11-03T22:15:24.955Z,65.14
2018-11-03T22:17:54.929Z,64.46
2018-11-03T22:20:24.910Z,64.80
2018-11-03T22:22:54.914Z,65.15
2018-11-03T22:25:24.922Z,64.63
2018-11-03T22:27:55.028Z,64.77
2018-11-03T22:30:24.939Z,64.54
2018-11-03T22:32:54.987Z,64.49
2018-11-03T22:35:25.035Z,64.30
2018-11-03T22:37:55.046Z,64.23
2018-11-03T22:40:25.049Z,64.52
2018-11-03T22:42:55.050Z,63.99
2018-11-03T22:45:25.041Z,64.42
2018-11-03T22:47:55.024Z,64.51
2018-11-03T22:50:25.069Z,64.68
2018-11-03T22:52:55.071Z,64.12
2018-11-03T22:55:25.088Z,64.19
2018-11-03T22:57:55.098Z,64.19
2018-11-03T23:00:25.120Z,64.27
2018-11-03T23:02:55.188Z,64.50
2018-11-03T23:05:25.267Z,64.33
2018-11-03T23:07:55.647Z,64.80
2018-11-03T23:10:26.045Z,64.70
2018-11-03T23:12:56.166Z,64.37
2018-11-03T23:15:26.111Z,64.67
2018-11-03T23:17:56.089Z,64.49
2018-11-03T23:20:26.086Z,64.90
2018-11-03T23:22:56.073Z,64.59
2018-11-03T23:25:27.011Z,64.88
2018-11-03T23:27:57.159Z,65.32
2018-11-03T23:30:27.535Z,64.89
2018-11-03T23:32:57.807Z,64.72
2018-11-03T23:35:27.798Z,65.18
2018-11-03T23:37:57.793Z,65.25
2018-11-03T23:40:27.854Z,65.32
2018-11-03T23:42:57.863Z,65.13
2018-11-03T23:45:27.850Z,65.46
2018-11-03T23:47:57.866Z,65.57
2018-11-03T23:50:27.903Z,65.68
2018-11-03T23:52:57.892Z,66.08
2018-11-03T23:55:27.871Z,65.98
2018-11-03T23:57:57.848Z,65.71
